Time;durP1;ratioP1;P1;durP2;ratioP2;P2;SDS_P1;SDS_P2;PMS_P1;PMS_P2;Temp;Humidity;BMP_temperature;BMP_pressure;BME280_temperature;BME280_humidity;BME280_pressure;Samples;Min_cycle;Max_cycle;Signal;HPM_P1;HPM_P2
2024/01/15 00:01:02;;;;;;;56.60;21.93;;;-4.90;99.90;;;;;;5133086;27;20670;-73
2024/01/15 00:03:28;;;;;;;64.83;20.47;;;-4.90;99.90;;;;;;5133628;27;20207;-73
2024/01/15 00:05:55;;;;;;;62.37;24.93;;;-4.90;99.90;;;;;;5133587;27;20195;-73
2024/01/15 00:08:22;;;;;;;57.40;24.80;;;-4.80;99.90;;;;;;5133965;27;20199;-73
2024/01/15 00:10:48;;;;;;;58.07;23.83;;;-4.80;99.90;;;;;;5133848;27;20248;-73
2024/01/15 00:13:15;;;;;;;55.67;21.67;;;-4.80;99.90;;;;;;5133909;27;20198;-73
2024/01/15 00:15:42;;;;;;;56.93;23.17;;;-4.80;99.90;;;;;;5133839;27;20199;-73
2024/01/15 00:18:10;;;;;;;59.17;23.47;;;-4.70;99.90;;;;;;5133802;27;20712;-73
2024/01/15 00:20:36;;;;;;;64.83;23.27;;;-4.70;99.90;;;;;;5133553;27;20714;-75
2024/01/15 00:23:03;;;;;;;57.40;21.80;;;-4.70;99.90;;;;;;5133727;27;20199;-75
2024/01/15 00:25:30;;;;;;;60.07;23.50;;;-4.70;99.90;;;;;;5133595;27;20202;-74
2024/01/15 00:27:56;;;;;;;61.73;24.27;;;-4.60;99.90;;;;;;5133971;27;20204;-73
2024/01/15 00:30:23;;;;;;;61.53;23.97;;;-4.60;99.90;;;;;;5133822;27;20198;-73
2024/01/15 00:32:50;;;;;;;60.47;24.07;;;-4.60;99.90;;;;;;5133742;27;20293;-73
2024/01/15 00:35:18;;;;;;;60.60;24.17;;;-4.50;99.90;;;;;;5133304;27;20707;-74
2024/01/15 00:37:44;;;;;;;57.37;23.60;;;-4.50;99.90;;;;;;5133146;27;20226;-73
2024/01/15 00:40:11;;;;;;;62.40;24.43;;;-4.40;99.90;;;;;;5133442;27;20595;-73
2024/01/15 00:42:38;;;;;;;57.73;22.47;;;-4.40;99.90;;;;;;5133382;28;20610;-73
2024/01/15 00:45:07;;;;;;;53.73;21.73;;;-4.40;99.90;;;;;;5133379;27;20226;-73
2024/01/15 00:47:34;;;;;;;57.83;22.93;;;-4.40;99.90;;;;;;5133838;27;20204;-73
2024/01/15 00:50:01;;;;;;;60.97;22.40;;;-4.30;99.90;;;;;;5133482;28;20206;-73
2024/01/15 00:52:29;;;;;;;60.50;24.43;;;-4.30;99.90;;;;;;5133264;27;20248;-72
2024/01/15 00:54:55;;;;;;;55.73;23.37;;;-4.30;99.90;;;;;;5133590;28;20195;-73
2024/01/15 00:57:22;;;;;;;56.63;20.53;;;-4.30;99.90;;;;;;5133527;28;20643;-73
2024/01/15 00:59:49;;;;;;;51.43;22.30;;;-4.20;99.90;;;;;;5133442;28;20269;-73
2024/01/15 01:02:15;;;;;;;64.33;23.43;;;-4.20;99.90;;;;;;5133406;27;20282;-73
2024/01/15 01:04:42;;;;;;;58.47;22.27;;;-4.20;99.90;;;;;;5133251;27;20613;-72
2024/01/15 01:07:09;;;;;;;54.87;21.10;;;-4.20;99.90;;;;;;5133468;27;20303;-73
2024/01/15 01:09:36;;;;;;;51.80;21.20;;;-4.10;99.90;;;;;;5133411;27;20197;-73
2024/01/15 01:12:03;;;;;;;54.47;19.73;;;-4.10;99.90;;;;;;5135002;27;20203;-73
2024/01/15 01:14:30;;;;;;;52.27;21.07;;;-4.10;99.90;;;;;;5137551;27;20200;-73
2024/01/15 01:16:57;;;;;;;47.03;20.57;;;-4.10;99.90;;;;;;5137145;27;20255;-73
2024/01/15 01:19:25;;;;;;;47.00;19.80;;;-4.00;99.90;;;;;;5137369;27;20209;-73
2024/01/15 01:21:52;;;;;;;49.93;20.53;;;-4.10;99.90;;;;;;5136461;27;20199;-73
2024/01/15 01:24:18;;;;;;;49.20;18.13;;;-4.00;99.90;;;;;;5137346;27;20201;-73
2024/01/15 01:26:46;;;;;;;53.13;20.20;;;-4.00;99.90;;;;;;5137158;27;20245;-74
2024/01/15 01:29:13;;;;;;;55.00;21.17;;;-4.00;99.90;;;;;;5137353;27;20195;-74
2024/01/15 01:31:43;;;;;;;53.87;19.77;;;-4.00;99.90;;;;;;5136969;27;20229;-73
2024/01/15 01:34:10;;;;;;;52.57;20.33;;;-3.90;99.90;;;;;;5136870;27;20199;-73
2024/01/15 01:36:37;;;;;;;53.60;19.90;;;-3.90;99.90;;;;;;5137004;27;20277;-74
2024/01/15 01:39:03;;;;;;;47.73;20.50;;;-3.90;99.90;;;;;;5137205;27;20250;-74
2024/01/15 01:41:30;;;;;;;47.63;20.03;;;-3.80;99.90;;;;;;5136966;27;20198;-74
2024/01/15 01:43:58;;;;;;;46.17;18.73;;;-3.80;99.90;;;;;;5136586;27;20273;-74
2024/01/15 01:46:25;;;;;;;38.23;14.90;;;-3.80;99.90;;;;;;5136806;27;20340;-73
2024/01/15 01:48:53;;;;;;;49.80;21.50;;;-3.90;99.90;;;;;;5136619;27;20548;-74
2024/01/15 01:51:21;;;;;;;39.43;18.23;;;-3.80;99.90;;;;;;5136778;27;20257;-74
2024/01/15 01:53:48;;;;;;;42.43;17.73;;;-3.80;99.90;;;;;;5136792;27;20197;-74
2024/01/15 01:56:15;;;;;;;44.47;19.37;;;-3.90;99.90;;;;;;5136568;27;20195;-74
2024/01/15 01:58:42;;;;;;;50.10;19.47;;;-3.80;99.90;;;;;;5136626;27;20250;-74
2024/01/15 02:01:11;;;;;;;53.00;19.97;;;-3.80;99.90;;;;;;5136635;27;20205;-74
2024/01/15 02:03:37;;;;;;;48.70;20.27;;;-3.70;99.90;;;;;;5136276;27;20249;-74
2024/01/15 02:06:04;;;;;;;41.73;16.53;;;-3.80;99.90;;;;;;5136447;27;20600;-74
2024/01/15 02:08:31;;;;;;;45.53;18.43;;;-3.80;99.90;;;;;;5136594;27;20238;-74
2024/01/15 02:10:58;;;;;;;44.07;17.23;;;-3.70;99.90;;;;;;5136334;27;20252;-73
2024/01/15 02:13:25;;;;;;;54.07;22.07;;;-3.80;99.90;;;;;;5136299;27;20200;-74
2024/01/15 02:15:51;;;;;;;48.10;19.23;;;-3.70;99.90;;;;;;5136058;27;20241;-74
2024/01/15 02:18:20;;;;;;;45.50;17.67;;;-3.70;99.90;;;;;;5136336;27;20225;-74
2024/01/15 02:20:46;;;;;;;44.63;18.43;;;-3.70;99.90;;;;;;5136345;27;20284;-74
2024/01/15 02:23:15;;;;;;;46.83;19.27;;;-3.70;99.90;;;;;;5135807;27;20195;-72
2024/01/15 02:25:44;;;;;;;47.53;18.43;;;-3.60;99.90;;;;;;5135951;27;20585;-72
2024/01/15 02:28:12;;;;;;;50.53;17.63;;;-3.60;99.90;;;;;;5136002;27;20224;-72
2024/01/15 02:30:40;;;;;;;45.80;19.73;;;-3.60;99.90;;;;;;5135826;27;20515;-72
2024/01/15 02:33:07;;;;;;;38.10;16.60;;;-3.60;99.90;;;;;;5135999;27;20606;-72
2024/01/15 02:35:36;;;;;;;35.93;14.80;;;-3.60;99.90;;;;;;5136037;27;20249;-72
2024/01/15 02:38:03;;;;;;;43.23;16.47;;;-3.60;99.90;;;;;;5135494;27;20228;-73
2024/01/15 02:40:31;;;;;;;40.97;15.83;;;-3.60;99.90;;;;;;5135678;27;20655;-74
2024/01/15 02:42:58;;;;;;;31.90;12.80;;;-3.60;99.90;;;;;;5137556;27;20193;-73
2024/01/15 02:45:25;;;;;;;41.03;15.60;;;-3.60;99.90;;;;;;5141496;27;20255;-73
2024/01/15 02:47:51;;;;;;;33.60;12.80;;;-3.50;99.90;;;;;;5135766;27;20195;-73
2024/01/15 02:50:18;;;;;;;33.57;13.43;;;-3.50;99.90;;;;;;5135637;27;20253;-72
2024/01/15 02:52:45;;;;;;;38.87;16.73;;;-3.40;99.90;;;;;;5135515;27;20250;-74
2024/01/15 02:55:11;;;;;;;37.50;15.77;;;-3.50;99.90;;;;;;5135516;27;20228;-73
2024/01/15 02:57:40;;;;;;;35.93;15.47;;;-3.40;99.90;;;;;;5135365;27;20687;-74
2024/01/15 03:00:08;;;;;;;43.33;17.33;;;-3.40;99.90;;;;;;5135438;27;20202;-72
2024/01/15 03:02:37;;;;;;;41.83;17.50;;;-3.40;99.90;;;;;;5135489;27;20236;-73
2024/01/15 03:05:03;;;;;;;43.57;17.77;;;-3.40;99.90;;;;;;5135214;27;20655;-73
2024/01/15 03:07:31;;;;;;;43.47;17.37;;;-3.40;99.90;;;;;;5135243;27;20590;-74
2024/01/15 03:09:58;;;;;;;45.23;17.87;;;-3.30;99.90;;;;;;5135237;27;20200;-74
2024/01/15 03:12:24;;;;;;;42.83;16.47;;;-3.30;99.90;;;;;;5135345;27;20254;-73
2024/01/15 03:14:52;;;;;;;42.27;18.03;;;-3.40;99.90;;;;;;5135251;27;20708;-74
2024/01/15 03:17:19;;;;;;;46.57;18.20;;;-3.40;99.90;;;;;;5135199;27;20643;-74
2024/01/15 03:19:45;;;;;;;40.80;16.67;;;-3.40;99.90;;;;;;5135256;27;20207;-74
2024/01/15 03:22:12;;;;;;;41.00;17.07;;;-3.40;99.90;;;;;;5134882;27;20200;-73
2024/01/15 03:24:39;;;;;;;43.10;17.73;;;-3.40;99.90;;;;;;5134962;27;20196;-73
2024/01/15 03:27:06;;;;;;;38.20;15.90;;;-3.40;99.90;;;;;;5135089;27;20293;-73
2024/01/15 03:29:32;;;;;;;33.20;15.13;;;-3.30;99.90;;;;;;5135068;27;20203;-75
2024/01/15 03:32:00;;;;;;;42.43;18.30;;;-3.30;99.90;;;;;;5134827;27;20206;-73
2024/01/15 03:34:27;;;;;;;38.47;16.27;;;-3.20;99.90;;;;;;5134142;27;20193;-73
2024/01/15 03:36:54;;;;;;;35.30;14.73;;;-3.20;99.90;;;;;;5134651;27;20647;-74
2024/01/15 03:39:20;;;;;;;39.53;18.40;;;-3.20;99.90;;;;;;5134477;27;20659;-74
2024/01/15 03:41:47;;;;;;;39.10;15.93;;;-3.20;99.90;;;;;;5134721;27;20201;-74
2024/01/15 03:44:13;;;;;;;39.13;16.20;;;-3.20;99.90;;;;;;5134376;27;20286;-74
2024/01/15 03:46:40;;;;;;;43.63;17.80;;;-3.10;99.90;;;;;;5134512;27;20323;-74
2024/01/15 03:49:08;;;;;;;37.20;16.67;;;-3.10;99.90;;;;;;5134332;27;20203;-74
2024/01/15 03:51:35;;;;;;;33.77;14.70;;;-3.10;99.90;;;;;;5134277;27;20199;-74
2024/01/15 03:54:01;;;;;;;37.80;16.23;;;-3.10;99.90;;;;;;5134463;27;20198;-74
2024/01/15 03:56:28;;;;;;;39.37;18.87;;;-3.00;99.90;;;;;;5134417;27;20253;-74
2024/01/15 03:58:55;;;;;;;34.43;15.83;;;-3.00;99.90;;;;;;5134277;27;20225;-74
2024/01/15 04:01:21;;;;;;;37.03;15.70;;;-3.00;99.90;;;;;;5133907;27;20197;-74
2024/01/15 04:03:48;;;;;;;38.83;16.27;;;-3.00;99.90;;;;;;5134133;27;20197;-74
2024/01/15 04:06:16;;;;;;;36.17;16.17;;;-3.00;99.90;;;;;;5134077;27;20201;-74
2024/01/15 04:08:43;;;;;;;36.13;14.97;;;-3.00;99.90;;;;;;5134165;27;20200;-74
2024/01/15 04:11:09;;;;;;;38.57;16.33;;;-2.90;99.90;;;;;;5134067;27;20259;-74
2024/01/15 04:13:36;;;;;;;41.30;17.10;;;-2.90;99.90;;;;;;5133854;27;20737;-74
2024/01/15 04:16:03;;;;;;;40.67;16.90;;;-2.90;99.90;;;;;;5133971;27;20200;-74
2024/01/15 04:18:29;;;;;;;30.47;14.63;;;-2.90;99.90;;;;;;5133745;27;20714;-74
2024/01/15 04:20:56;;;;;;;37.97;16.27;;;-2.90;99.90;;;;;;5133730;27;20195;-74
2024/01/15 04:23:24;;;;;;;40.10;16.43;;;-2.90;99.90;;;;;;5134089;27;20204;-74
2024/01/15 04:25:51;;;;;;;36.20;16.73;;;-2.80;99.90;;;;;;5133900;27;20399;-74
2024/01/15 04:28:17;;;;;;;34.43;15.97;;;-2.90;99.90;;;;;;5133678;27;20715;-74
2024/01/15 04:30:44;;;;;;;39.87;17.27;;;-2.80;99.90;;;;;;5133867;27;20247;-74
2024/01/15 04:33:11;;;;;;;30.40;15.33;;;-2.80;99.90;;;;;;5133692;27;20251;-74
2024/01/15 04:35:38;;;;;;;35.03;15.63;;;-2.80;99.90;;;;;;5133499;27;20641;-73
2024/01/15 04:38:05;;;;;;;37.90;16.70;;;-2.80;99.90;;;;;;5133744;27;20311;-73
2024/01/15 04:40:33;;;;;;;33.70;15.30;;;-2.80;99.90;;;;;;5133706;28;20201;-74
2024/01/15 04:43:00;;;;;;;34.67;16.47;;;-2.80;99.90;;;;;;5133689;28;20202;-74
2024/01/15 04:45:28;;;;;;;34.93;15.97;;;-2.80;99.90;;;;;;5133971;27;20290;-74
2024/01/15 04:47:55;;;;;;;34.33;15.23;;;-2.80;99.90;;;;;;5137804;27;20291;-74
2024/01/15 04:50:22;;;;;;;30.50;15.03;;;-2.80;99.90;;;;;;5138061;27;20225;-74
2024/01/15 04:52:49;;;;;;;38.20;15.73;;;-2.70;99.90;;;;;;5137683;27;20587;-74
2024/01/15 04:55:15;;;;;;;33.03;15.50;;;-2.70;99.90;;;;;;5137589;27;20656;-74
2024/01/15 04:57:43;;;;;;;36.07;15.17;;;-2.70;99.90;;;;;;5137613;27;20240;-74
2024/01/15 05:00:12;;;;;;;31.00;14.33;;;-2.70;99.90;;;;;;5137613;27;20205;-74
2024/01/15 05:02:38;;;;;;;33.70;15.60;;;-2.70;99.90;;;;;;5137607;27;20198;-74
2024/01/15 05:05:05;;;;;;;28.40;14.90;;;-2.60;99.90;;;;;;5137592;27;20199;-74
2024/01/15 05:07:32;;;;;;;29.53;12.13;;;-2.70;99.90;;;;;;5137549;27;20202;-74
2024/01/15 05:09:58;;;;;;;28.13;13.77;;;-2.60;99.90;;;;;;5137577;27;20252;-74
2024/01/15 05:12:25;;;;;;;29.77;13.97;;;-2.60;99.90;;;;;;5137468;27;20195;-74
2024/01/15 05:14:53;;;;;;;31.80;13.83;;;-2.60;99.90;;;;;;5137386;27;20198;-74
2024/01/15 05:17:20;;;;;;;31.73;12.53;;;-2.60;99.90;;;;;;5137520;27;20248;-74
2024/01/15 05:19:46;;;;;;;27.80;12.50;;;-2.60;99.90;;;;;;5137462;27;20596;-74
2024/01/15 05:22:13;;;;;;;29.00;14.40;;;-2.60;99.90;;;;;;5137232;27;20669;-74
2024/01/15 05:24:39;;;;;;;33.00;14.47;;;-2.60;99.90;;;;;;5137301;27;20191;-73
2024/01/15 05:27:06;;;;;;;31.20;14.80;;;-2.50;99.90;;;;;;5137528;27;20246;-73
2024/01/15 05:29:33;;;;;;;29.63;14.17;;;-2.50;99.90;;;;;;5137073;27;20201;-73
2024/01/15 05:32:01;;;;;;;31.83;14.77;;;-2.50;99.90;;;;;;5137035;27;20579;-73
2024/01/15 05:34:27;;;;;;;28.90;13.87;;;-2.50;99.90;;;;;;5137088;27;20652;-73
2024/01/15 05:36:54;;;;;;;27.87;14.43;;;-2.40;99.90;;;;;;5137066;27;20271;-73
2024/01/15 05:39:21;;;;;;;26.87;13.50;;;-2.40;99.90;;;;;;5136871;27;20230;-73
2024/01/15 05:41:47;;;;;;;29.33;12.60;;;-2.40;99.90;;;;;;5136772;27;20199;-73
2024/01/15 05:44:14;;;;;;;26.60;13.97;;;-2.40;99.90;;;;;;5136667;27;20225;-73
2024/01/15 05:46:40;;;;;;;26.50;14.33;;;-2.40;99.90;;;;;;5136986;27;20195;-74
2024/01/15 05:49:08;;;;;;;26.97;13.80;;;-2.40;99.90;;;;;;5136834;27;20259;-74
2024/01/15 05:51:35;;;;;;;30.60;14.37;;;-2.40;99.90;;;;;;5137223;27;20198;-73
2024/01/15 05:54:02;;;;;;;31.70;15.03;;;-2.40;99.90;;;;;;5136950;27;20679;-73
2024/01/15 05:56:28;;;;;;;30.67;14.87;;;-2.40;99.90;;;;;;5136946;27;20626;-74
2024/01/15 05:58:55;;;;;;;28.63;13.23;;;-2.40;99.90;;;;;;5135736;27;20230;-73
2024/01/15 06:01:22;;;;;;;25.17;12.30;;;-2.40;99.90;;;;;;5136554;27;20207;-74
2024/01/15 06:03:48;;;;;;;29.07;13.93;;;-2.40;99.90;;;;;;5136834;27;20243;-73
2024/01/15 06:06:16;;;;;;;29.17;13.93;;;-2.40;99.90;;;;;;5136945;27;20206;-73
2024/01/15 06:08:43;;;;;;;27.30;12.57;;;-2.40;99.90;;;;;;5136423;27;20195;-74
2024/01/15 06:11:10;;;;;;;24.07;13.03;;;-2.40;99.90;;;;;;5136169;27;20590;-72
2024/01/15 06:13:36;;;;;;;29.83;13.23;;;-2.30;99.90;;;;;;5144263;27;20194;-74
2024/01/15 06:16:03;;;;;;;26.97;13.93;;;-2.30;99.90;;;;;;5136367;27;20205;-74
2024/01/15 06:18:30;;;;;;;27.17;14.07;;;-2.30;99.90;;;;;;5136188;27;20251;-73
2024/01/15 06:20:57;;;;;;;33.27;15.70;;;-2.30;99.90;;;;;;5136280;27;20199;-72
2024/01/15 06:23:24;;;;;;;28.10;13.70;;;-2.30;99.90;;;;;;5136261;27;20231;-73
2024/01/15 06:25:51;;;;;;;27.63;13.67;;;-2.30;99.90;;;;;;5136111;27;20709;-74
2024/01/15 06:28:18;;;;;;;23.30;10.80;;;-2.30;99.90;;;;;;5136229;27;20240;-74
2024/01/15 06:30:45;;;;;;;26.13;13.87;;;-2.30;99.90;;;;;;5135958;27;20191;-74
2024/01/15 06:33:11;;;;;;;32.40;14.87;;;-2.30;99.90;;;;;;5135887;27;20670;-74
2024/01/15 06:35:38;;;;;;;27.70;13.57;;;-2.30;99.90;;;;;;5135899;27;20202;-74
2024/01/15 06:38:05;;;;;;;25.17;13.03;;;-2.20;99.90;;;;;;5135662;27;20226;-73
2024/01/15 06:40:33;;;;;;;27.73;13.83;;;-2.30;99.90;;;;;;5135407;27;20198;-74
2024/01/15 06:42:59;;;;;;;25.30;12.67;;;-2.20;99.90;;;;;;5135727;27;20195;-73
2024/01/15 06:45:26;;;;;;;25.17;12.53;;;-2.20;99.90;;;;;;5135410;27;20226;-72
2024/01/15 06:47:52;;;;;;;23.37;13.77;;;-2.20;99.90;;;;;;5135244;27;20244;-74
2024/01/15 06:50:19;;;;;;;28.80;14.30;;;-2.10;99.90;;;;;;5135531;27;20250;-73
2024/01/15 06:52:46;;;;;;;26.43;13.37;;;-2.10;99.90;;;;;;5135506;27;20198;-73
2024/01/15 06:55:12;;;;;;;29.57;13.30;;;-2.10;99.90;;;;;;5135173;27;20263;-73
2024/01/15 06:57:40;;;;;;;29.70;12.83;;;-2.10;99.90;;;;;;5135425;27;20251;-73
2024/01/15 07:00:09;;;;;;;26.90;14.27;;;-2.10;99.90;;;;;;5135184;27;20223;-74
2024/01/15 07:02:35;;;;;;;22.37;11.70;;;-2.10;99.90;;;;;;5135354;27;20198;-73
2024/01/15 07:05:04;;;;;;;27.73;13.50;;;-2.10;99.90;;;;;;5135382;27;20271;-73
2024/01/15 07:07:31;;;;;;;27.53;14.03;;;-2.10;99.90;;;;;;5134982;27;20197;-74
2024/01/15 07:09:58;;;;;;;27.67;14.03;;;-2.10;99.90;;;;;;5134203;27;20199;-73
2024/01/15 07:12:25;;;;;;;27.43;13.93;;;-2.20;99.90;;;;;;5134941;27;20534;-74
2024/01/15 07:14:53;;;;;;;29.67;14.50;;;-2.10;99.90;;;;;;5135233;27;20217;-74
2024/01/15 07:17:19;;;;;;;24.00;13.37;;;-2.10;99.90;;;;;;5135282;27;20218;-74
2024/01/15 07:19:46;;;;;;;24.27;12.93;;;-2.10;99.90;;;;;;5134870;27;20738;-74
2024/01/15 07:22:13;;;;;;;25.20;13.70;;;-2.10;99.90;;;;;;5134813;27;20205;-74
2024/01/15 07:24:39;;;;;;;20.73;12.13;;;-2.10;99.90;;;;;;5134841;27;20186;-74
2024/01/15 07:27:06;;;;;;;29.13;13.53;;;-2.10;99.90;;;;;;5135031;27;20197;-74
2024/01/15 07:29:35;;;;;;;25.83;13.17;;;-2.10;99.90;;;;;;5135103;27;20217;-73
2024/01/15 07:32:04;;;;;;;28.77;13.83;;;-2.00;99.90;;;;;;5135015;27;20205;-73
2024/01/15 07:34:31;;;;;;;22.97;12.30;;;-2.00;99.90;;;;;;5134877;27;20213;-74
2024/01/15 07:36:58;;;;;;;26.53;12.50;;;-2.00;99.90;;;;;;5134796;27;20209;-74
2024/01/15 07:39:25;;;;;;;27.33;12.90;;;-2.00;99.90;;;;;;5134724;27;20645;-73
2024/01/15 07:41:52;;;;;;;24.53;11.63;;;-1.90;99.90;;;;;;5134569;27;20613;-73
2024/01/15 07:44:19;;;;;;;19.87;11.50;;;-1.90;99.90;;;;;;5134587;27;20227;-74
2024/01/15 07:46:46;;;;;;;23.53;12.03;;;-1.90;99.90;;;;;;5134778;27;20251;-73
2024/01/15 07:49:14;;;;;;;23.90;12.70;;;-1.90;99.90;;;;;;5134401;27;20235;-71
2024/01/15 07:51:43;;;;;;;22.43;10.87;;;-1.80;99.90;;;;;;5134641;27;20271;-72
2024/01/15 07:54:10;;;;;;;25.23;12.53;;;-1.80;99.90;;;;;;5134612;27;20254;-72
2024/01/15 07:56:54;;;;;;;19.00;11.73;;;-1.80;99.90;;;;;;5134442;27;20599;-73
2024/01/15 07:59:21;;;;;;;19.10;10.30;;;-1.70;99.90;;;;;;5134241;27;20210;-72
2024/01/15 08:01:48;;;;;;;21.23;11.97;;;-1.80;99.90;;;;;;5134281;27;20714;-74
2024/01/15 08:04:16;;;;;;;23.40;11.33;;;-1.80;99.90;;;;;;5134685;27;20203;-74
2024/01/15 08:06:42;;;;;;;23.67;11.83;;;-1.70;99.90;;;;;;5134233;27;20650;-73
2024/01/15 08:09:09;;;;;;;19.77;10.73;;;-1.80;99.90;;;;;;5134156;27;20194;-74
2024/01/15 08:11:36;;;;;;;21.07;10.17;;;-1.70;99.90;;;;;;5134207;27;20618;-74
2024/01/15 08:14:03;;;;;;;21.20;11.23;;;-1.70;99.90;;;;;;5134176;27;20615;-74
2024/01/15 08:16:29;;;;;;;21.87;10.57;;;-1.80;99.90;;;;;;5133864;27;20657;-74
2024/01/15 08:18:56;;;;;;;22.50;11.77;;;-1.70;99.90;;;;;;5133881;27;20281;-74
2024/01/15 08:21:24;;;;;;;20.03;11.03;;;-1.70;99.90;;;;;;5113304;27;20596;-74
2024/01/15 08:23:51;;;;;;;21.43;11.20;;;-1.70;99.90;;;;;;5113500;28;20211;-79
2024/01/15 08:26:18;;;;;;;17.53;8.93;;;-1.70;99.90;;;;;;5113843;28;20200;-75
2024/01/15 08:28:45;;;;;;;20.60;9.93;;;-1.70;99.90;;;;;;5114698;28;20264;-74
2024/01/15 08:31:11;;;;;;;19.97;11.60;;;-1.60;99.90;;;;;;5113799;28;20203;-76
2024/01/15 08:33:38;;;;;;;20.57;11.27;;;-1.70;99.90;;;;;;5113344;28;20196;-77
2024/01/15 08:36:05;;;;;;;20.67;11.63;;;-1.60;99.90;;;;;;5113434;28;20233;-77
2024/01/15 08:38:33;;;;;;;14.80;9.13;;;-1.70;99.90;;;;;;5113329;28;20214;-76
2024/01/15 08:41:00;;;;;;;20.67;10.10;;;-1.70;99.90;;;;;;5113118;28;20203;-77
2024/01/15 08:43:27;;;;;;;17.97;9.00;;;-1.70;99.90;;;;;;5112934;28;20204;-76
2024/01/15 08:45:53;;;;;;;19.93;11.20;;;-1.70;99.90;;;;;;5113454;28;20195;-77
2024/01/15 08:48:20;;;;;;;20.77;10.20;;;-1.60;99.90;;;;;;5113473;28;20252;-76
2024/01/15 08:50:47;;;;;;;21.03;11.53;;;-1.60;99.90;;;;;;5113263;28;20229;-76
2024/01/15 08:53:14;;;;;;;24.07;12.13;;;-1.60;99.90;;;;;;5113304;28;20192;-77
2024/01/15 08:55:43;;;;;;;21.50;11.87;;;-1.60;99.90;;;;;;5113224;28;20288;-76
2024/01/15 08:58:10;;;;;;;21.70;11.37;;;-1.60;99.90;;;;;;5113239;28;20279;-76
2024/01/15 09:00:37;;;;;;;19.57;11.13;;;-1.60;99.90;;;;;;5113183;28;20223;-76
2024/01/15 09:03:04;;;;;;;26.07;12.03;;;-1.60;99.90;;;;;;5113067;28;20196;-76
2024/01/15 09:05:31;;;;;;;21.57;11.67;;;-1.60;99.90;;;;;;5113122;28;20670;-76
2024/01/15 09:07:57;;;;;;;15.30;9.60;;;-1.50;99.90;;;;;;5113099;28;20199;-76
2024/01/15 09:10:24;;;;;;;19.20;10.77;;;-1.50;99.90;;;;;;5113035;28;20203;-75
2024/01/15 09:12:52;;;;;;;18.67;10.60;;;-1.40;99.90;;;;;;5112931;28;20323;-89
2024/01/15 09:15:19;;;;;;;15.00;8.00;;;-1.30;99.90;;;;;;5113016;28;20200;-74
2024/01/15 09:17:47;;;;;;;15.97;9.80;;;-1.40;99.90;;;;;;5113077;28;20199;-75
2024/01/15 09:20:13;;;;;;;20.67;10.13;;;-1.30;99.90;;;;;;5112866;28;20309;-75
2024/01/15 09:22:41;;;;;;;15.60;9.23;;;-1.30;99.90;;;;;;5112553;28;20191;-75
2024/01/15 09:25:09;;;;;;;17.97;9.33;;;-1.20;99.90;;;;;;5112677;28;20196;-74
2024/01/15 09:27:36;;;;;;;18.50;9.33;;;-1.20;99.90;;;;;;5112704;28;20229;-75
2024/01/15 09:30:04;;;;;;;19.93;10.00;;;-1.20;99.90;;;;;;5112914;28;20275;-75
2024/01/15 09:32:32;;;;;;;14.87;8.70;;;-1.20;99.90;;;;;;5113499;28;20222;-75
2024/01/15 09:34:59;;;;;;;12.63;8.07;;;-1.20;99.90;;;;;;5115779;28;20200;-75
2024/01/15 09:37:26;;;;;;;18.50;10.20;;;-1.20;99.90;;;;;;5115236;28;20211;-74
2024/01/15 09:39:53;;;;;;;17.57;9.47;;;-1.00;99.90;;;;;;5115230;28;20224;-73
2024/01/15 09:42:21;;;;;;;15.20;8.57;;;-1.10;99.90;;;;;;5120947;28;20716;-74
2024/01/15 09:44:49;;;;;;;17.30;9.43;;;-1.10;99.90;;;;;;5115108;27;20642;-73
2024/01/15 09:47:17;;;;;;;14.47;8.20;;;-1.20;99.90;;;;;;5115119;28;20612;-74
2024/01/15 09:49:44;;;;;;;16.57;9.40;;;-1.30;99.90;;;;;;5115894;28;20196;-74
2024/01/15 09:52:12;;;;;;;17.93;10.17;;;-1.20;99.90;;;;;;5116426;28;20199;-74
2024/01/15 09:54:40;;;;;;;15.83;8.70;;;-1.30;99.90;;;;;;5116773;28;20200;-74
2024/01/15 09:57:07;;;;;;;17.17;9.70;;;-1.30;99.90;;;;;;5116581;28;20200;-73
2024/01/15 09:59:35;;;;;;;17.50;9.30;;;-1.20;99.90;;;;;;5115943;28;20220;-73
2024/01/15 10:02:03;;;;;;;16.07;9.47;;;-1.30;99.90;;;;;;5116257;28;20229;-73
2024/01/15 10:04:31;;;;;;;16.33;9.13;;;-1.30;99.90;;;;;;5116035;28;20222;-74
2024/01/15 10:07:00;;;;;;;19.90;12.03;;;-1.30;99.90;;;;;;5115913;28;20196;-72
2024/01/15 10:09:27;;;;;;;17.87;10.53;;;-1.20;99.90;;;;;;5116077;28;20203;-72
2024/01/15 10:11:55;;;;;;;16.23;9.87;;;-1.20;99.90;;;;;;5115789;28;20196;-72
2024/01/15 10:14:22;;;;;;;18.60;10.37;;;-1.20;99.90;;;;;;5115437;27;20195;-72
2024/01/15 10:16:48;;;;;;;18.00;10.03;;;-1.20;99.90;;;;;;5114567;28;20643;-73
2024/01/15 10:19:15;;;;;;;15.43;10.43;;;-1.20;99.90;;;;;;5114168;28;20240;-73
2024/01/15 10:21:43;;;;;;;15.60;9.33;;;-1.20;99.90;;;;;;5115101;28;20195;-72
2024/01/15 10:24:09;;;;;;;14.63;8.53;;;-1.20;99.90;;;;;;5114531;27;20195;-74
2024/01/15 10:26:36;;;;;;;17.20;9.77;;;-1.10;99.90;;;;;;5126918;27;20204;-74
2024/01/15 10:29:03;;;;;;;15.33;8.73;;;-1.10;99.90;;;;;;5114137;28;20223;-75
2024/01/15 10:31:30;;;;;;;15.37;9.80;;;-1.10;99.90;;;;;;5114141;28;20199;-75
2024/01/15 10:34:11;;;;;;;14.27;9.13;;;-1.00;99.90;;;;;;5113790;28;20203;-74
2024/01/15 10:36:40;;;;;;;15.60;8.77;;;-0.90;99.90;;;;;;5118901;27;20274;-76
2024/01/15 10:39:08;;;;;;;16.87;10.47;;;-0.90;99.90;;;;;;5130119;27;20203;-78
2024/01/15 10:41:35;;;;;;;17.60;9.53;;;-0.80;99.90;;;;;;5133275;27;20718;-77
2024/01/15 10:44:02;;;;;;;16.13;9.90;;;-0.90;99.90;;;;;;5135192;27;20222;-76
2024/01/15 10:46:30;;;;;;;14.57;8.57;;;-0.90;99.90;;;;;;5135905;27;20195;-76
2024/01/15 10:48:57;;;;;;;17.87;10.37;;;-0.80;99.90;;;;;;5135797;27;20259;-76
2024/01/15 10:51:25;;;;;;;14.20;8.60;;;-0.70;99.90;;;;;;5135781;27;20667;-77
2024/01/15 10:53:54;;;;;;;13.73;8.70;;;-0.70;99.90;;;;;;5135548;27;20642;-76
2024/01/15 10:56:22;;;;;;;13.37;8.10;;;-0.70;99.90;;;;;;5135825;27;20198;-76
2024/01/15 10:58:51;;;;;;;16.43;9.10;;;-0.80;99.90;;;;;;5135443;27;20199;-76
2024/01/15 11:01:19;;;;;;;18.17;8.80;;;-1.00;99.90;;;;;;5132794;27;20697;-76
2024/01/15 11:03:47;;;;;;;16.80;9.23;;;-0.90;99.90;;;;;;5134459;27;20270;-74
2024/01/15 11:06:20;;;;;;;12.67;7.47;;;-1.00;99.90;;;;;;5133561;27;20250;-74
2024/01/15 11:08:49;;;;;;;13.70;8.43;;;-1.00;99.90;;;;;;5134157;27;20205;-74
2024/01/15 11:11:17;;;;;;;14.53;8.57;;;-1.20;99.90;;;;;;5133801;27;20279;-74
2024/01/15 11:13:50;;;;;;;14.47;8.17;;;-1.20;99.90;;;;;;5134014;27;20194;-74
2024/01/15 11:16:17;;;;;;;15.37;8.87;;;-1.10;99.90;;;;;;5133630;27;20206;-75
2024/01/15 11:19:01;;;;;;;16.93;9.47;;;-1.20;99.90;;;;;;5133972;27;20252;-74
2024/01/15 11:21:29;;;;;;;12.60;8.37;;;-1.20;99.90;;;;;;5133685;27;21005;-74
2024/01/15 11:23:58;;;;;;;18.93;9.50;;;-1.20;99.90;;;;;;5133617;27;20659;-71
2024/01/15 11:26:36;;;;;;;18.10;9.63;;;-1.20;99.90;;;;;;5133640;27;20256;-70
2024/01/15 11:29:06;;;;;;;17.97;10.40;;;-1.30;99.90;;;;;;5133569;27;20234;-70
2024/01/15 11:31:58;;;;;;;17.30;10.00;;;-1.30;99.90;;;;;;5133453;27;20294;-75
2024/01/15 11:34:51;;;;;;;18.27;9.73;;;-1.30;99.90;;;;;;5133402;27;20293;-76
2024/01/15 11:37:18;;;;;;;18.37;9.23;;;-1.30;99.90;;;;;;5134730;27;20195;-73
2024/01/15 11:39:44;;;;;;;15.43;8.83;;;-1.20;99.90;;;;;;5134547;27;20768;-73
2024/01/15 11:42:12;;;;;;;15.47;9.60;;;-1.20;99.90;;;;;;5134764;27;20282;-74
2024/01/15 11:44:40;;;;;;;14.10;8.80;;;-1.10;99.90;;;;;;5134212;27;20761;-74
2024/01/15 11:47:09;;;;;;;16.57;10.07;;;-1.10;99.90;;;;;;5134549;27;20199;-75
2024/01/15 11:49:59;;;;;;;19.30;9.63;;;-1.10;99.90;;;;;;5134579;27;20199;-74
2024/01/15 11:52:26;;;;;;;16.30;9.47;;;-1.10;99.90;;;;;;5134593;27;20252;-74
2024/01/15 11:55:00;;;;;;;16.80;9.33;;;-1.10;99.90;;;;;;5133925;27;20654;-74
2024/01/15 11:57:34;;;;;;;15.30;8.60;;;-1.10;99.90;;;;;;5134232;27;20198;-73
2024/01/15 12:00:04;;;;;;;17.97;9.93;;;-1.00;99.90;;;;;;5134253;27;20214;-74
2024/01/15 12:02:31;;;;;;;19.87;9.20;;;-1.00;99.90;;;;;;5134235;27;20237;-74
2024/01/15 12:04:57;;;;;;;14.97;9.10;;;-1.10;99.90;;;;;;5133918;27;20514;-74
2024/01/15 12:07:24;;;;;;;21.90;13.57;;;-1.00;99.90;;;;;;5134202;27;20502;-74
2024/01/15 12:09:50;;;;;;;15.03;8.93;;;-1.10;99.90;;;;;;5133959;27;20710;-74
2024/01/15 12:12:26;;;;;;;16.10;9.13;;;-1.10;99.90;;;;;;5133783;27;20210;-74
2024/01/15 12:14:52;;;;;;;18.87;8.90;;;-1.10;99.90;;;;;;5134177;27;20222;-74
2024/01/15 12:17:20;;;;;;;16.60;9.37;;;-1.10;99.90;;;;;;5134128;27;20199;-74
2024/01/15 12:19:47;;;;;;;16.03;9.27;;;-1.10;99.90;;;;;;5133924;27;20729;-74
2024/01/15 12:22:15;;;;;;;14.07;8.43;;;-1.10;99.90;;;;;;5134158;27;20241;-75
2024/01/15 12:24:42;;;;;;;32.90;19.03;;;-1.10;99.90;;;;;;5134114;27;20199;-72
2024/01/15 12:27:09;;;;;;;14.93;9.97;;;-1.20;99.90;;;;;;5134115;27;20247;-73
2024/01/15 12:29:36;;;;;;;17.10;9.73;;;-1.20;99.90;;;;;;5134128;27;20202;-74